Terminal Aerodrome Forecast
Issued by NWS

Current Version | Previous Version | Text Only | Print | Product List | Glossary On
Versions: 1 2 3 4 5 6 7 8 9 10 11 12 13 14 15 16
592
FTUS41 KCAR 272321
TAFFVE
TAF
KFVE 272321Z 2800/2824 22007KT P6SM BKN250
     FM281200 16005KT P6SM BKN080 OVC150
     FM282200 05008KT P6SM VCSH SCT030 OVC060=

USA.gov is the U.S. government's official web portal to all federal, state and local government web resources and services.